Neusiedl am See, Austria
Current Conditions -  °F | °C
As of 7:20 PM on Saturday 25 Oct 2014 (Local Time) from LOWW Reporting Station
Broken Clouds Broken Clouds  
Wind Chill: 39°   Ceiling: 1200
Heat Index: 45°   Visibility: 6mi
Dew Point: 43°   Wind: 12mph
Humidity: 93%   Direction: 130°SE
Pressure: 30.24"   Gusts: NA
Location:  47.95°N, 16.84°E
Report Text: LOWW 251720Z 13010KT 9999 FEW008 BKN012 07/06 Q1024 BECMG BKN008
Loading
Personal Weather Stations






























Interactive Weather Map
Tropical Storm Tracking
New forecast layout! Learn more

10-Day Weather Forecast

Advertisements
Track Severe Weather on mobile